createdAt,value
2023-04-09T00:05:22.483Z,20.36
2023-04-09T00:34:13.053Z,20.33
2023-04-09T01:03:04.399Z,20.29
2023-04-09T01:31:47.122Z,20.26
2023-04-09T02:00:36.829Z,20.24
2023-04-09T02:29:28.034Z,20.2
2023-04-09T02:58:19.179Z,20.18
2023-04-09T03:27:11.159Z,20.14
2023-04-09T03:55:59.244Z,20.11
2023-04-09T04:24:48.524Z,20.51
2023-04-09T04:53:40.459Z,20.97
2023-04-09T05:22:32.687Z,21.27
2023-04-09T05:51:22.747Z,21.02
2023-04-09T06:20:10.128Z,20.88
2023-04-09T06:48:58.339Z,20.78
2023-04-09T07:17:48.305Z,20.71
2023-04-09T07:46:30.484Z,20.88
2023-04-09T08:15:11.930Z,21.05
2023-04-09T08:44:00.407Z,21.23
2023-04-09T09:12:29.261Z,21.21
2023-04-09T09:41:05.890Z,21.39
2023-04-09T10:09:57.732Z,21.32
2023-04-09T10:38:45.288Z,21.17
2023-04-09T11:07:31.148Z,21.08
2023-04-09T11:36:16.776Z,21
2023-04-09T12:04:56.618Z,20.92
2023-04-09T12:33:32.250Z,20.88
2023-04-09T13:02:21.933Z,20.87
2023-04-09T13:30:55.845Z,20.85
2023-04-09T13:59:36.505Z,20.83
2023-04-09T14:28:33.920Z,20.84
2023-04-09T14:57:28.726Z,20.84
2023-04-09T15:26:27.920Z,20.84
2023-04-09T15:55:21.850Z,20.84
2023-04-09T16:24:17.638Z,20.85
2023-04-09T16:53:09.816Z,20.85
2023-04-09T17:22:04.555Z,20.99
2023-04-09T17:50:59.860Z,20.96
2023-04-09T18:19:56.673Z,20.95
2023-04-09T18:48:51.240Z,20.89
2023-04-09T19:17:38.781Z,20.85
2023-04-09T19:46:29.980Z,20.83
2023-04-09T20:15:24.466Z,20.79
2023-04-09T20:44:25.528Z,20.75
2023-04-09T21:13:16.315Z,20.61
2023-04-09T21:42:10.906Z,20.52
2023-04-09T22:10:56.837Z,20.49
2023-04-09T22:39:48.255Z,20.44
2023-04-09T23:08:44.505Z,20.39
2023-04-09T23:37:43.047Z,20.36
